San Benito, TX

4:14 AM CST on November 23, 2014 (GMT -0600)
Valley International | Change Station
CLOSE
Current Station
Airport
Location: Harlingen,
Elevation: 36 ft
Nearby Weather Stations

Elev 36 ft 26.23 °N, 97.65 °W | Updated 10 minutes ago

Clear
Clear
59 °F
Feels Like 59 °F
N
5
Wind Variable Wind from West

Today
High -- | Low -- °F
--% Chance of Precip.
Yesterday
High -- | Low -- °F
Precip. -- in
6:55 AM 5:38 PM
New Moon, 1% visible
Pressure 29.76 in
Visibility 3.0 miles
Clouds Clear
Dew Point 59 °F
Humidity 100%
Rainfall 0.04 in
Snow Depth Not available.
UV 0 out of 12
Pollen 3.00 out of 12
Air Quality Not available.
Flu Activity Not available.
SPECI KHRL 231004Z 27004KT 3SM BR CLR 15/15 A2976 RMK AO2

More Conditions Fewer Conditions

Pressure 29.76 in
Visibility 3.0 miles
Clouds Clear
Dew Point 59 °F
Humidity 100%
Rainfall 0.04 in
Snow Depth Not available.
UV 0 out of 12
Pollen 3.00 out of 12
Air Quality Not available.
Flu Activity Not available.
SPECI KHRL 231004Z 27004KT 3SM BR CLR 15/15 A2976 RMK AO2

More Conditions Fewer Conditions

Nowcast | as of 3:57 am CST on November 23, 2014

Through 7 am...areas of fog will continue to develop across the Rio Grande Valley and deep south Texas. Some of the fog may become dense with visibility falling below 1 mile. Motorists are urged to drive with caution when encountering areas of reduced visibility.

×

10-Day Weather Forecast

Almanac

Astronomy

Nov. 23, 2014 Rise Set
Actual Time
Civil Twilight
Nautical Twilight
Astronomical Twilight
Moon
Length of Visible Light
Length of Day
Tomorrow will be .
, % of the Moon is Illuminated

Today's Extremes

State Highs State Lows

Community

WunderPhotos

Upload Photos

1,773,031 photos uploaded!

WunderBlogs® & News

Nearby

Air Quality

  Air Quality AQ Index Pollutant
Not available.

Snow Depth

Station Depth Elevation

Earthquake Activity

City Distance Mag. Time & Date
Minimum magnitude displayed is 2.5.

Coastal Water Temperatures

Place Temperature

Nearby Weather Stations